createdAt,value
2016-06-06T08:40:10.167Z,76.82
2016-06-06T08:41:10.217Z,76.56
2016-06-06T08:42:10.158Z,75.92
2016-06-06T08:43:09.989Z,74.76
2016-06-06T08:44:10.132Z,74.96
2016-06-06T08:45:10.135Z,74.51
2016-06-06T08:46:10.121Z,74.22
2016-06-06T08:47:10.171Z,74.22
2016-06-06T08:48:10.111Z,73.73
2016-06-06T08:49:10.114Z,74.32
2016-06-06T08:50:10.085Z,74.22
2016-06-06T08:51:10.088Z,73.93
2016-06-06T08:52:10.075Z,73.54
2016-06-06T08:53:10.077Z,73.48
2016-06-06T08:54:10.080Z,73.96
2016-06-06T08:55:10.052Z,75.09
2016-06-06T08:56:10.054Z,74.02
2016-06-06T08:57:10.042Z,73.77
2016-06-06T08:58:10.044Z,72.71
2016-06-06T08:59:09.891Z,72.45
2016-06-06T09:00:10.034Z,73.52
2016-06-06T09:01:10.037Z,72.87
2016-06-06T09:02:10.024Z,71.51
2016-06-06T09:03:10.026Z,71.9
2016-06-06T09:04:10.014Z,71.42
2016-06-06T09:05:09.985Z,71.94
2016-06-06T09:06:09.987Z,73.46
2016-06-06T09:07:09.990Z,73.36
2016-06-06T09:08:09.977Z,73.07
2016-06-06T09:09:09.981Z,71.9
2016-06-06T09:10:09.827Z,71.12
2016-06-06T09:11:09.970Z,71.26
2016-06-06T09:12:09.958Z,72
2016-06-06T09:13:09.975Z,70
2016-06-06T09:14:10.213Z,70.48
2016-06-06T09:15:10.027Z,70.12
2016-06-06T09:16:09.952Z,69.25
2016-06-06T09:17:09.939Z,68.7
2016-06-06T09:18:09.927Z,68.12
2016-06-06T09:19:09.929Z,69.29
2016-06-06T09:20:09.932Z,68.05
2016-06-06T09:21:09.919Z,67.38
2016-06-06T09:22:09.921Z,66.83
2016-06-06T09:23:09.908Z,67.11
2016-06-06T09:24:09.896Z,67.5
2016-06-06T09:25:09.898Z,66.73
2016-06-06T09:26:09.901Z,66.66
2016-06-06T09:27:09.904Z,65.59
2016-06-06T09:28:09.891Z,66.08
2016-06-06T09:29:09.768Z,66.47
2016-06-06T09:30:09.896Z,66.5
2016-06-06T09:31:09.883Z,65.63
2016-06-06T09:32:09.886Z,65.98
2016-06-06T09:33:09.873Z,66.17
2016-06-06T09:34:09.907Z,65.53
2016-06-06T09:35:09.863Z,65.82
2016-06-06T09:36:09.881Z,64.75
2016-06-06T09:37:09.868Z,64.78
2016-06-06T09:38:09.870Z,64.87
2016-06-06T09:39:09.873Z,65.82
2016-06-06T09:40:09.861Z,64.07
2016-06-06T09:41:09.879Z,64.59
2016-06-06T09:42:09.897Z,64.39
2016-06-06T09:43:09.712Z,63.25
2016-06-06T09:44:09.886Z,63.25
2016-06-06T09:45:09.859Z,63.54
2016-06-06T09:46:09.861Z,62.86
2016-06-06T09:47:09.833Z,63.06
2016-06-06T09:48:09.850Z,62.79
2016-06-06T09:49:09.853Z,62.41
2016-06-06T09:50:09.840Z,61.72
2016-06-06T09:51:09.858Z,61.66
2016-06-06T09:52:09.846Z,61.36
2016-06-06T09:53:09.849Z,61.85
2016-06-06T09:54:09.852Z,61.85
2016-06-06T09:55:09.854Z,61.56
2016-06-06T09:56:09.841Z,61.56
2016-06-06T09:57:09.860Z,61.66
2016-06-06T09:58:09.846Z,61.72
2016-06-06T09:59:10.068Z,62.24
2016-06-06T10:00:09.852Z,62.31
2016-06-06T10:01:09.840Z,61.72
2016-06-06T10:02:09.857Z,63.38
2016-06-06T10:03:09.720Z,62.96
2016-06-06T10:04:09.847Z,62.76
2016-06-06T10:05:09.850Z,64.06
2016-06-06T10:06:09.853Z,64.23
2016-06-06T10:07:09.840Z,62.89
2016-06-06T10:08:09.842Z,62.41
2016-06-06T10:09:09.845Z,62.44
2016-06-06T10:10:09.847Z,61.56
2016-06-06T10:11:09.851Z,60.91
2016-06-06T10:12:09.837Z,60.81
2016-06-06T10:13:09.839Z,60.91
2016-06-06T10:14:10.031Z,61.33
2016-06-06T10:15:09.845Z,61.23
2016-06-06T10:16:09.864Z,60.57
2016-06-06T10:17:09.835Z,59.4
2016-06-06T10:18:09.822Z,60.35
2016-06-06T10:19:09.856Z,60.55
2016-06-06T10:20:09.844Z,61.23
2016-06-06T10:21:09.830Z,60.38
2016-06-06T10:22:09.833Z,60.25
2016-06-06T10:23:09.852Z,60.08
2016-06-06T10:24:09.838Z,59.89
2016-06-06T10:25:09.825Z,59.43
2016-06-06T10:26:09.828Z,59.33
2016-06-06T10:27:09.830Z,59.14
2016-06-06T10:28:09.832Z,59.59
2016-06-06T10:29:09.836Z,59.23
2016-06-06T10:30:09.823Z,59.43
2016-06-06T10:31:09.826Z,58.75
2016-06-06T10:32:09.828Z,59.14
2016-06-06T10:33:09.831Z,59.53
2016-06-06T10:34:09.818Z,58.26
2016-06-06T10:35:09.837Z,58.23
2016-06-06T10:36:09.823Z,59.3
2016-06-06T10:37:09.826Z,59.04
2016-06-06T10:38:09.828Z,59.43
2016-06-06T10:39:09.910Z,58.87
2016-06-06T10:40:09.662Z,59.92
2016-06-06T10:41:09.837Z,60.28
2016-06-06T10:42:09.808Z,61.13
2016-06-06T10:43:09.811Z,61.62
2016-06-06T10:44:10.048Z,61.79
2016-06-06T10:45:10.833Z,61.43
2016-06-06T10:46:09.803Z,61.33
2016-06-06T10:47:09.822Z,61.33
2016-06-06T10:48:09.794Z,60.28
2016-06-06T10:49:09.796Z,59.89
2016-06-06T10:50:09.799Z,59.53
2016-06-06T10:51:09.802Z,59.72
2016-06-06T10:52:09.789Z,59.53
2016-06-06T10:53:09.807Z,59.33
2016-06-06T10:54:09.778Z,59.36
2016-06-06T10:55:09.797Z,59.19
2016-06-06T10:56:09.783Z,58.02
2016-06-06T10:57:09.786Z,58.51
2016-06-06T10:58:09.788Z,59.78
2016-06-06T10:59:10.713Z,59.19
2016-06-06T11:00:09.779Z,57.92
2016-06-06T11:01:09.766Z,59.07
2016-06-06T11:02:09.768Z,58.97
2016-06-06T11:03:09.771Z,59.27
2016-06-06T11:04:09.774Z,59.36
2016-06-06T11:05:09.762Z,59.17
2016-06-06T11:06:09.608Z,59.75
2016-06-06T11:07:09.751Z,58.18
2016-06-06T11:08:09.753Z,58.97
2016-06-06T11:09:09.756Z,58.61
2016-06-06T11:10:09.743Z,58.51
2016-06-06T11:11:09.746Z,58.61
2016-06-06T11:12:09.733Z,58.51
2016-06-06T11:13:09.751Z,58.51
2016-06-06T11:14:09.739Z,58.44
2016-06-06T11:15:10.366Z,56.77
2016-06-06T11:16:09.709Z,57.76
2016-06-06T11:17:09.728Z,58.05
2016-06-06T11:18:09.746Z,59.39
2016-06-06T11:19:09.718Z,58.9
2016-06-06T11:20:09.705Z,58.61
2016-06-06T11:21:09.723Z,58.02
2016-06-06T11:22:09.711Z,58.05
2016-06-06T11:23:09.713Z,58.05
2016-06-06T11:24:09.716Z,59.49
2016-06-06T11:25:09.719Z,58.78
2016-06-06T11:26:09.705Z,59.36
2016-06-06T11:27:09.724Z,60.14
2016-06-06T11:28:09.711Z,59.17
2016-06-06T11:29:09.557Z,60.24
2016-06-06T11:30:10.122Z,59.88
2016-06-06T11:31:09.750Z,59.29
2016-06-06T11:32:09.690Z,59
2016-06-06T11:33:09.693Z,58.51
2016-06-06T11:34:09.680Z,58.34
2016-06-06T11:35:09.682Z,58.73
2016-06-06T11:36:09.685Z,59.81
2016-06-06T11:37:09.720Z,59.49
2016-06-06T11:38:09.676Z,59.52
2016-06-06T11:39:09.662Z,58.44
2016-06-06T11:40:09.665Z,58.47
2016-06-06T11:41:09.651Z,59.25
2016-06-06T11:42:09.654Z,57.49
2016-06-06T11:43:09.673Z,57.68
2016-06-06T11:44:09.676Z,58.2
2016-06-06T11:45:09.678Z,57.62
2016-06-06T11:46:09.494Z,57.59
2016-06-06T11:47:09.497Z,56.51
2016-06-06T11:48:09.639Z,57.2
2016-06-06T11:49:09.642Z,58.93
2016-06-06T11:50:09.630Z,58.34
2016-06-06T11:51:09.633Z,57.86
2016-06-06T11:52:09.635Z,58.76
2016-06-06T11:53:09.638Z,58.17
2016-06-06T11:54:09.484Z,57.76
2016-06-06T11:55:09.627Z,58.07
2016-06-06T11:56:09.630Z,58.67
2016-06-06T11:57:09.633Z,57.91
2016-06-06T11:58:09.619Z,57.03
2016-06-06T11:59:10.950Z,57.52
2016-06-06T12:00:10.124Z,57.62
2016-06-06T12:01:09.613Z,58.11
2016-06-06T12:02:09.662Z,58.01
2016-06-06T12:03:09.617Z,58.2
2016-06-06T12:04:09.621Z,57.42
2016-06-06T12:05:09.608Z,56.96
2016-06-06T12:06:09.673Z,56.57
2016-06-06T12:07:09.612Z,57.74
2016-06-06T12:08:09.616Z,58.11
2016-06-06T12:09:09.618Z,57.22
2016-06-06T12:10:09.604Z,57.12
2016-06-06T12:11:09.608Z,57.91
2016-06-06T12:12:09.579Z,57.71
2016-06-06T12:13:09.598Z,57.62
2016-06-06T12:14:09.648Z,57.81
2016-06-06T12:15:09.587Z,57.12
2016-06-06T12:16:09.590Z,56.93
2016-06-06T12:17:09.593Z,57.12
2016-06-06T12:18:09.595Z,57.68
2016-06-06T12:19:09.567Z,58.67
2016-06-06T12:20:09.586Z,58.27
2016-06-06T12:21:09.588Z,57.71
2016-06-06T12:22:09.575Z,57.52
2016-06-06T12:23:09.578Z,58.17
2016-06-06T12:24:09.580Z,58.86
2016-06-06T12:25:09.614Z,58.05
2016-06-06T12:26:09.569Z,58.47
2016-06-06T12:27:09.557Z,58.27
2016-06-06T12:28:09.560Z,58.17
2016-06-06T12:29:09.577Z,58.76
2016-06-06T12:30:09.737Z,58.07
2016-06-06T12:31:09.552Z,58.57
2016-06-06T12:32:09.555Z,59.42
2016-06-06T12:33:09.636Z,59.71
2016-06-06T12:34:09.544Z,59.03
2016-06-06T12:35:09.531Z,59.52
2016-06-06T12:36:09.550Z,58.83
2016-06-06T12:37:09.552Z,57.98
2016-06-06T12:38:09.540Z,58.25
2016-06-06T12:39:09.526Z,58.47
2016-06-06T12:40:09.529Z,58.25
2016-06-06T12:41:09.532Z,59.09
2016-06-06T12:42:09.535Z,58.83
2016-06-06T12:43:09.522Z,58.05
2016-06-06T12:44:09.713Z,57.95
2016-06-06T12:45:09.528Z,58.07
2016-06-06T12:46:09.514Z,57.59
2016-06-06T12:47:09.501Z,58.05
2016-06-06T12:48:09.504Z,58.05
2016-06-06T12:49:09.507Z,57.36
2016-06-06T12:50:09.509Z,57.66
2016-06-06T12:51:09.512Z,57.36
2016-06-06T12:52:09.515Z,59.22
2016-06-06T12:53:09.502Z,58.05
2016-06-06T12:54:09.505Z,58.07
2016-06-06T12:55:09.508Z,57.68
2016-06-06T12:56:09.495Z,57.49
2016-06-06T12:57:09.481Z,58.47
2016-06-06T12:58:09.499Z,59.06
2016-06-06T12:59:09.549Z,58.67
2016-06-06T13:00:09.489Z,59.35
2016-06-06T13:01:09.477Z,59.06
2016-06-06T13:02:09.527Z,58.47
2016-06-06T13:03:09.482Z,58.59
2016-06-06T13:04:09.532Z,57.62
2016-06-06T13:05:09.487Z,58.11
2016-06-06T13:06:09.475Z,57.98
2016-06-06T13:07:09.462Z,58.3
2016-06-06T13:08:09.464Z,58.59
2016-06-06T13:09:09.468Z,59.55
2016-06-06T13:10:09.470Z,59.35
2016-06-06T13:11:09.457Z,57.66
2016-06-06T13:12:09.459Z,57.17
2016-06-06T13:13:09.462Z,56.68
2016-06-06T13:14:09.559Z,58.22
2016-06-06T13:15:09.452Z,57.82
2016-06-06T13:16:09.439Z,57.86
2016-06-06T13:17:09.442Z,57.17
2016-06-06T13:18:09.459Z,57.59
2016-06-06T13:19:09.462Z,56.9
2016-06-06T13:20:09.434Z,57.12
2016-06-06T13:21:09.421Z,57.03
2016-06-06T13:22:09.439Z,56.71
2016-06-06T13:23:09.442Z,56.54
2016-06-06T13:24:09.429Z,56.31
2016-06-06T13:25:09.431Z,56.9
2016-06-06T13:26:09.434Z,57.68
2016-06-06T13:27:09.437Z,57.59
2016-06-06T13:28:09.424Z,57.81
2016-06-06T13:29:09.411Z,56.73
2016-06-06T13:30:09.445Z,56.63
2016-06-06T13:31:09.416Z,56.34
2016-06-06T13:32:09.419Z,55.85
2016-06-06T13:33:09.407Z,56.61
2016-06-06T13:34:09.424Z,56.87
2016-06-06T13:35:09.396Z,56.87
2016-06-06T13:36:09.399Z,57.78
2016-06-06T13:37:09.402Z,56.41
2016-06-06T13:38:09.420Z,56.71
2016-06-06T13:39:09.407Z,56.63
2016-06-06T13:40:09.394Z,56.44
2016-06-06T13:41:09.396Z,57.71
2016-06-06T13:42:09.399Z,56.63
2016-06-06T13:43:09.386Z,56.73
2016-06-06T13:44:09.390Z,55.1
2016-06-06T13:45:09.752Z,55.39
2016-06-06T13:46:09.379Z,54.21
2016-06-06T13:47:09.381Z,52.76
2016-06-06T13:48:09.401Z,53.13
2016-06-06T13:49:09.371Z,53.59
2016-06-06T13:50:09.373Z,56.17
2016-06-06T13:51:09.376Z,55.66
2016-06-06T13:52:09.364Z,54.6
2016-06-06T13:53:09.382Z,55.68
2016-06-06T13:54:09.369Z,57.12
2016-06-06T13:55:09.372Z,57.91
2016-06-06T13:56:09.375Z,57.68
2016-06-06T13:57:09.361Z,57.22
2016-06-06T13:58:09.364Z,56.93
2016-06-06T13:59:10.585Z,56.54
2016-06-06T14:00:09.369Z,57.64
2016-06-06T14:01:09.200Z,57.03
2016-06-06T14:02:09.344Z,56.9
2016-06-06T14:03:09.347Z,57.59
2016-06-06T14:04:09.349Z,56.97
2016-06-06T14:05:09.352Z,57.26
2016-06-06T14:06:09.339Z,58.15
2016-06-06T14:07:09.342Z,57
2016-06-06T14:08:09.329Z,56.9
2016-06-06T14:09:09.347Z,56.9
2016-06-06T14:10:09.318Z,56.81
2016-06-06T14:11:09.337Z,57.1
2016-06-06T14:12:09.324Z,56.51
2016-06-06T14:13:09.327Z,55.36
2016-06-06T14:14:09.345Z,57.68
2016-06-06T14:15:09.723Z,56.61
2016-06-06T14:16:09.319Z,56.81
2016-06-06T14:17:09.322Z,57.88
2016-06-06T14:18:09.309Z,57.78
2016-06-06T14:19:09.311Z,57.98
2016-06-06T14:20:09.314Z,57.98
2016-06-06T14:21:09.317Z,58.07
2016-06-06T14:22:09.303Z,56.71
2016-06-06T14:23:09.306Z,57.56
2016-06-06T14:24:09.294Z,58.15
2016-06-06T14:25:09.312Z,60
2016-06-06T14:26:09.300Z,59.22
2016-06-06T14:27:09.348Z,58.86
2016-06-06T14:28:09.304Z,58.47
2016-06-06T14:29:09.323Z,57.39
2016-06-06T14:30:09.278Z,57.98
2016-06-06T14:31:09.280Z,58.17
2016-06-06T14:32:09.284Z,57.12
2016-06-06T14:33:09.286Z,58.01
2016-06-06T14:34:09.274Z,57.71
2016-06-06T14:35:09.276Z,57.81
2016-06-06T14:36:09.279Z,56.9
2016-06-06T14:37:09.282Z,56.9
2016-06-06T14:38:09.269Z,58.67
2016-06-06T14:39:09.271Z,59.16
2016-06-06T14:40:09.275Z,58.07
2016-06-06T14:41:09.261Z,57.1
2016-06-06T14:42:09.263Z,56.71
2016-06-06T14:43:09.251Z,56.81
2016-06-06T14:44:10.051Z,56.61
2016-06-06T14:45:09.257Z,57.49
2016-06-06T14:46:09.259Z,56.81
2016-06-06T14:47:09.246Z,56.81
2016-06-06T14:48:09.248Z,56.9
2016-06-06T14:49:09.252Z,57.59
2016-06-06T14:50:09.348Z,57.88
2016-06-06T14:51:09.241Z,57.59
2016-06-06T14:52:09.275Z,57.86
2016-06-06T14:53:09.231Z,57.66
2016-06-06T14:54:09.249Z,57.17
2016-06-06T14:55:09.220Z,58.34
2016-06-06T14:56:09.223Z,57.76
2016-06-06T14:57:09.211Z,58.05
2016-06-06T14:58:09.213Z,57.76
2016-06-06T14:59:09.217Z,57.07
2016-06-06T15:00:09.219Z,57.73
2016-06-06T15:01:09.222Z,57.92
2016-06-06T15:02:09.208Z,58.02
2016-06-06T15:03:09.211Z,58.31
2016-06-06T15:04:09.214Z,59.69
2016-06-06T15:05:09.200Z,58.87
2016-06-06T15:06:09.203Z,59.17
2016-06-06T15:07:09.191Z,60.34
2016-06-06T15:08:09.193Z,60.5
2016-06-06T15:09:09.197Z,60.31
2016-06-06T15:10:09.183Z,60.41
2016-06-06T15:11:09.029Z,60.41
2016-06-06T15:12:09.188Z,59.82
2016-06-06T15:13:09.191Z,59.92
2016-06-06T15:14:09.178Z,60.6
2016-06-06T15:15:09.040Z,59.46
2016-06-06T15:16:09.168Z,59.85
2016-06-06T15:17:09.170Z,60.14
2016-06-06T15:18:09.157Z,60.34
2016-06-06T15:19:09.160Z,59.46
2016-06-06T15:20:09.163Z,59.36
2016-06-06T15:21:09.151Z,59.46
2016-06-06T15:22:09.153Z,60.02
2016-06-06T15:23:09.156Z,60.21
2016-06-06T15:24:09.159Z,60.08
2016-06-06T15:25:09.146Z,60.38
2016-06-06T15:26:09.148Z,60.08
2016-06-06T15:27:09.134Z,60.08
2016-06-06T15:28:08.981Z,60.57
2016-06-06T15:29:09.125Z,61.25
2016-06-06T15:30:10.081Z,60.47
2016-06-06T15:31:09.131Z,60.77
2016-06-06T15:32:09.133Z,60.77
2016-06-06T15:33:09.120Z,60.31
2016-06-06T15:34:09.107Z,60.31
2016-06-06T15:35:09.111Z,59.33
2016-06-06T15:36:09.113Z,60.47
2016-06-06T15:37:09.116Z,60.28
2016-06-06T15:38:09.102Z,60.18
2016-06-06T15:39:09.089Z,60.86
2016-06-06T15:40:09.092Z,61.55
2016-06-06T15:41:09.094Z,61.06
2016-06-06T15:42:09.097Z,60.18
2016-06-06T15:43:09.084Z,60.45
2016-06-06T15:44:09.087Z,60.28
2016-06-06T15:45:09.668Z,60.35
2016-06-06T15:46:09.077Z,60.28
2016-06-06T15:47:09.064Z,59.86
2016-06-06T15:48:09.082Z,59.79
2016-06-06T15:49:09.069Z,60.74
2016-06-06T15:50:09.057Z,60.94
2016-06-06T15:51:08.888Z,59.47
2016-06-06T15:52:09.124Z,59.77
2016-06-06T15:53:09.049Z,59.57
2016-06-06T15:54:09.051Z,60.25
2016-06-06T15:55:09.039Z,60.74
2016-06-06T15:56:09.104Z,60.25
2016-06-06T15:57:09.044Z,60.74
2016-06-06T15:58:09.031Z,61.23
2016-06-06T15:59:09.050Z,60.16
2016-06-06T16:00:09.037Z,60.25
2016-06-06T16:01:09.023Z,60.06
2016-06-06T16:02:09.011Z,60.16
2016-06-06T16:03:09.014Z,60.45
2016-06-06T16:04:09.016Z,60.94
2016-06-06T16:05:09.003Z,60.55
2016-06-06T16:06:09.006Z,60.45
2016-06-06T16:07:09.008Z,60.25
2016-06-06T16:08:08.995Z,60.03
2016-06-06T16:09:08.983Z,59.38
2016-06-06T16:10:09.001Z,60.52
2016-06-06T16:11:08.988Z,60.32
2016-06-06T16:12:08.991Z,60.91
2016-06-06T16:13:08.963Z,61.2
2016-06-06T16:14:08.966Z,61
2016-06-06T16:15:08.983Z,61.4
2016-06-06T16:16:08.971Z,61
2016-06-06T16:17:08.941Z,61.1
2016-06-06T16:18:08.960Z,61.69
2016-06-06T16:19:08.994Z,61.36
2016-06-06T16:20:08.935Z,62.15
2016-06-06T16:21:08.937Z,61.59
2016-06-06T16:22:08.940Z,61.4
2016-06-06T16:23:08.771Z,61.4
2016-06-06T16:24:08.945Z,61.46
2016-06-06T16:25:08.932Z,62.34
2016-06-06T16:26:08.935Z,62.95
2016-06-06T16:27:08.921Z,61.79
2016-06-06T16:28:08.909Z,62.56
2016-06-06T16:29:08.959Z,61.88
2016-06-06T16:30:08.914Z,61.1
2016-06-06T16:31:08.886Z,60.64
2016-06-06T16:32:08.904Z,60.81
2016-06-06T16:33:08.891Z,61.59
2016-06-06T16:34:08.878Z,61.23
2016-06-06T16:35:08.897Z,61.3
2016-06-06T16:36:08.884Z,61.88
2016-06-06T16:37:08.886Z,61.3
2016-06-06T16:38:08.873Z,62.27
2016-06-06T16:39:08.892Z,61.69
2016-06-06T16:40:08.878Z,61.88
2016-06-06T16:41:08.866Z,61.79
2016-06-06T16:42:08.853Z,61.3
2016-06-06T16:43:08.860Z,61.59
2016-06-06T16:44:08.852Z,62.76
2016-06-06T16:45:08.953Z,62.18
2016-06-06T16:46:08.867Z,62.08
2016-06-06T16:47:08.875Z,62.15
2016-06-06T16:48:08.865Z,61.95
2016-06-06T16:49:08.869Z,61.56
2016-06-06T16:50:08.872Z,62.53
2016-06-06T16:51:08.877Z,61.85
2016-06-06T16:52:08.850Z,61.66
2016-06-06T16:53:08.854Z,61.46
2016-06-06T16:54:08.857Z,61.76
2016-06-06T16:55:08.845Z,61.85
2016-06-06T16:56:08.832Z,61.66
2016-06-06T16:57:08.836Z,61.95
2016-06-06T16:58:08.839Z,61.85
2016-06-06T16:59:08.826Z,61.95
2016-06-06T17:00:08.830Z,62.44
2016-06-06T17:01:08.817Z,62.6
2016-06-06T17:02:08.820Z,62.73
2016-06-06T17:03:08.823Z,63.28
2016-06-06T17:04:08.809Z,63.77
2016-06-06T17:05:08.812Z,63.96
2016-06-06T17:06:08.814Z,63.96
2016-06-06T17:07:08.803Z,63.96
2016-06-06T17:08:08.805Z,63.57
2016-06-06T17:09:08.792Z,64.16
2016-06-06T17:10:08.780Z,63.96
2016-06-06T17:11:08.782Z,63.77
2016-06-06T17:12:08.769Z,63.96
2016-06-06T17:13:08.772Z,63.96
2016-06-06T17:14:08.774Z,64.06
2016-06-06T17:15:08.761Z,63.77
2016-06-06T17:16:08.764Z,64.09
2016-06-06T17:17:08.751Z,64.36
2016-06-06T17:18:08.754Z,63.8
2016-06-06T17:19:08.741Z,63.77
2016-06-06T17:20:08.743Z,63.28
2016-06-06T17:21:08.746Z,63.6
2016-06-06T17:22:08.733Z,63.41
2016-06-06T17:23:08.721Z,63.21
2016-06-06T17:24:08.707Z,62.92
2016-06-06T17:25:08.726Z,63.8
2016-06-06T17:26:08.712Z,64.19
2016-06-06T17:27:08.700Z,63.7
2016-06-06T17:28:08.687Z,62.5
2016-06-06T17:29:08.720Z,62.99
2016-06-06T17:30:08.990Z,63.28
2016-06-06T17:31:08.726Z,62.89
2016-06-06T17:32:08.697Z,62.89
2016-06-06T17:33:08.701Z,63.77
2016-06-06T17:34:08.672Z,63.38
2016-06-06T17:35:08.674Z,63.28
2016-06-06T17:36:08.677Z,63.57
2016-06-06T17:37:08.664Z,63.38
2016-06-06T17:38:08.650Z,62.99
2016-06-06T17:39:08.670Z,63.38
2016-06-06T17:40:08.641Z,63.18
2016-06-06T17:41:08.658Z,62.89
2016-06-06T17:42:08.631Z,62.5
2016-06-06T17:43:08.633Z,62.31
2016-06-06T17:44:08.652Z,62.28
2016-06-06T17:45:08.701Z,62.08
2016-06-06T17:46:08.627Z,62.76
2016-06-06T17:47:08.457Z,62.47
2016-06-06T17:48:08.615Z,62.86
2016-06-06T17:49:08.603Z,63.06
2016-06-06T17:50:08.605Z,63.35
2016-06-06T17:51:08.607Z,63.93
2016-06-06T17:52:08.595Z,62.96
2016-06-06T17:53:08.582Z,63.02
2016-06-06T17:54:08.585Z,63.81
2016-06-06T17:55:08.587Z,64
2016-06-06T17:56:08.574Z,63.71
2016-06-06T17:57:08.577Z,64.1
2016-06-06T17:58:08.564Z,63.71
2016-06-06T17:59:08.567Z,63.81
2016-06-06T18:00:08.601Z,63.81
2016-06-06T18:01:08.542Z,63.78
2016-06-06T18:02:08.544Z,64.17
2016-06-06T18:03:08.531Z,64.75
2016-06-06T18:04:08.581Z,64.45
2016-06-06T18:05:08.536Z,64.84
2016-06-06T18:06:08.523Z,65.33
2016-06-06T18:07:08.511Z,65.23
2016-06-06T18:08:08.560Z,65.63
2016-06-06T18:09:08.516Z,65.72
2016-06-06T18:10:08.503Z,65.43
2016-06-06T18:11:08.505Z,65.63
2016-06-06T18:12:08.492Z,65.82
2016-06-06T18:13:08.495Z,66.02
2016-06-06T18:14:08.561Z,66.02
2016-06-06T18:15:09.079Z,65.92
2016-06-06T18:16:08.488Z,65.69
2016-06-06T18:17:08.475Z,66.02
2016-06-06T18:18:08.477Z,66.11
2016-06-06T18:19:08.465Z,66.11
2016-06-06T18:20:08.296Z,66.37
2016-06-06T18:21:08.455Z,66.76
2016-06-06T18:22:08.441Z,66.86
2016-06-06T18:23:08.429Z,66.76
2016-06-06T18:24:08.431Z,66.56
2016-06-06T18:25:08.419Z,66.66
2016-06-06T18:26:08.420Z,66.17
2016-06-06T18:27:08.407Z,66.76
2016-06-06T18:28:08.410Z,66.86
2016-06-06T18:29:08.398Z,66.76
2016-06-06T18:30:08.790Z,66.79
2016-06-06T18:31:08.404Z,67.28
2016-06-06T18:32:08.390Z,66.89
2016-06-06T18:33:08.377Z,66.86
2016-06-06T18:34:08.380Z,67.28
2016-06-06T18:35:08.383Z,66.86
2016-06-06T18:36:08.370Z,67.63
2016-06-06T18:37:08.356Z,67.54
2016-06-06T18:38:08.359Z,66.96
2016-06-06T18:39:08.347Z,67.05
2016-06-06T18:40:08.349Z,67.05
2016-06-06T18:41:08.352Z,67.25
2016-06-06T18:42:08.339Z,67.93
2016-06-06T18:43:08.388Z,67.15
2016-06-06T18:44:08.345Z,67.05
2016-06-06T18:45:08.191Z,67.73
2016-06-06T18:46:08.303Z,67.83
2016-06-06T18:47:08.305Z,67.35
2016-06-06T18:48:08.293Z,67.73
2016-06-06T18:49:08.296Z,67.54
2016-06-06T18:50:08.282Z,67.15
2016-06-06T18:51:08.285Z,68.32
2016-06-06T18:52:08.288Z,67.83
2016-06-06T18:53:08.260Z,68.12
2016-06-06T18:54:08.262Z,68.09
2016-06-06T18:55:08.264Z,68.61
2016-06-06T18:56:08.252Z,68.48
2016-06-06T18:57:08.254Z,68.29
2016-06-06T18:58:08.241Z,68.48
2016-06-06T18:59:08.244Z,69.06
2016-06-06T19:00:08.231Z,69.26
2016-06-06T19:01:08.233Z,68.87
2016-06-06T19:02:08.236Z,69.06
2016-06-06T19:03:08.208Z,69.74
2016-06-06T19:04:08.211Z,69.45
2016-06-06T19:05:08.213Z,69.45
2016-06-06T19:06:08.200Z,69.16
2016-06-06T19:07:08.203Z,69.65
2016-06-06T19:08:08.190Z,69.84
2016-06-06T19:09:08.192Z,69.9
2016-06-06T19:10:08.180Z,69.81
2016-06-06T19:11:08.167Z,70.39
2016-06-06T19:12:08.186Z,69.42
2016-06-06T19:13:08.156Z,69.9
2016-06-06T19:14:08.144Z,70.29
2016-06-06T19:15:08.146Z,70
2016-06-06T19:16:08.134Z,70.58
2016-06-06T19:17:08.464Z,70.29
2016-06-06T19:18:08.139Z,70.1
2016-06-06T19:19:07.969Z,70.87
2016-06-06T19:20:08.113Z,70.2
2016-06-06T19:21:08.116Z,70.2
2016-06-06T19:22:08.119Z,70.39
2016-06-06T19:23:08.121Z,70.68
2016-06-06T19:24:08.093Z,70.65
2016-06-06T19:25:08.079Z,71.42
2016-06-06T19:26:08.066Z,71.13
2016-06-06T19:27:07.913Z,71.62
2016-06-06T19:28:08.087Z,71.72
2016-06-06T19:29:08.074Z,71.52
2016-06-06T19:30:08.062Z,72.11
2016-06-06T19:31:08.049Z,72.3
2016-06-06T19:32:08.051Z,72.07
2016-06-06T19:33:08.039Z,72.07
2016-06-06T19:34:08.042Z,72.55
2016-06-06T19:35:08.059Z,72.55
2016-06-06T19:36:08.015Z,72.65
2016-06-06T19:37:08.003Z,72.45
2016-06-06T19:38:08.021Z,72.45
2016-06-06T19:39:07.992Z,72.75
2016-06-06T19:40:07.979Z,72.65
2016-06-06T19:41:07.998Z,72.55
2016-06-06T19:42:07.984Z,73.52
2016-06-06T19:43:07.972Z,73.04
2016-06-06T19:44:07.959Z,73.24
2016-06-06T19:45:07.977Z,73.24
2016-06-06T19:46:07.964Z,73.52
2016-06-06T19:47:07.952Z,73.78
2016-06-06T19:48:07.938Z,73.62
2016-06-06T19:49:07.941Z,73.88
2016-06-06T19:50:07.912Z,73.78
2016-06-06T19:51:07.977Z,74.27
2016-06-06T19:52:07.918Z,74.75
2016-06-06T19:53:07.921Z,74.07
2016-06-06T19:54:07.907Z,74.37
2016-06-06T19:55:07.926Z,74.17
2016-06-06T19:56:07.913Z,74.65
2016-06-06T19:57:07.885Z,74.85
2016-06-06T19:58:07.887Z,74.95
2016-06-06T19:59:07.890Z,74.75
2016-06-06T20:00:07.876Z,75.34
2016-06-06T20:01:07.848Z,75.1
2016-06-06T20:02:07.867Z,75.2
2016-06-06T20:03:07.837Z,75.2
2016-06-06T20:04:07.856Z,75.2
2016-06-06T20:05:08.579Z,75.59
2016-06-06T20:06:07.830Z,75.68
2016-06-06T20:07:07.834Z,75.4
2016-06-06T20:08:07.820Z,75.4
2016-06-06T20:09:07.792Z,75.78
2016-06-06T20:10:07.794Z,76.07
2016-06-06T20:11:07.812Z,76.37
2016-06-06T20:12:07.800Z,76.56
2016-06-06T20:13:07.786Z,76.32
2016-06-06T20:14:07.774Z,76.32
2016-06-06T20:15:07.761Z,76.62
2016-06-06T20:16:07.763Z,76.62
2016-06-06T20:17:07.750Z,76.04
2016-06-06T20:18:07.753Z,76.85
2016-06-06T20:19:07.741Z,76.65
2016-06-06T20:20:07.743Z,76.95
2016-06-06T20:21:07.794Z,76.56
2016-06-06T20:22:07.717Z,76.85
2016-06-06T20:23:07.719Z,76.56
2016-06-06T20:24:07.738Z,77.39
2016-06-06T20:25:07.694Z,77.2
2016-06-06T20:26:07.727Z,77.78
2016-06-06T20:27:07.684Z,77.69
2016-06-06T20:28:07.702Z,77.98
2016-06-06T20:29:07.658Z,78.07
2016-06-06T20:30:07.723Z,77.88
2016-06-06T20:31:07.648Z,77.78
2016-06-06T20:32:07.635Z,78.46
2016-06-06T20:33:07.638Z,78.36
2016-06-06T20:34:07.625Z,78.42
2016-06-06T20:35:07.627Z,78.03
2016-06-06T20:36:07.473Z,77.84
2016-06-06T20:37:07.601Z,77.75
2016-06-06T20:38:07.604Z,78.13
2016-06-06T20:39:07.606Z,78.07
2016-06-06T20:40:07.594Z,78.07
2016-06-06T20:41:07.581Z,77.94
2016-06-06T20:42:07.568Z,77.69
2016-06-06T20:43:07.586Z,77.84
2016-06-06T20:44:07.558Z,77.49
2016-06-06T20:45:07.544Z,77.88
2016-06-06T20:46:07.547Z,78.03
2016-06-06T20:47:07.550Z,77.84
2016-06-06T20:48:07.537Z,77.88
2016-06-06T20:49:07.524Z,78.13
2016-06-06T20:50:07.527Z,77.94
2016-06-06T20:51:07.357Z,77.65
2016-06-06T20:52:07.501Z,77.75
2016-06-06T20:53:07.488Z,78.42
2016-06-06T20:54:07.491Z,77.94
2016-06-06T20:55:07.493Z,78.13
2016-06-06T20:56:07.480Z,78.13
2016-06-06T20:57:07.468Z,78.42
2016-06-06T20:58:07.471Z,78.71
2016-06-06T20:59:07.473Z,78.71
2016-06-06T21:00:07.460Z,78.71
2016-06-06T21:01:07.510Z,78.52
2016-06-06T21:02:07.450Z,78.91
2016-06-06T21:03:07.438Z,79
2016-06-06T21:04:07.423Z,79.1
2016-06-06T21:05:07.723Z,79
2016-06-06T21:06:07.774Z,79.3
2016-06-06T21:07:07.401Z,79.3
2016-06-06T21:08:07.387Z,79.25
2016-06-06T21:09:07.437Z,79.35
2016-06-06T21:10:07.378Z,79.25
2016-06-06T21:11:07.428Z,79.35
2016-06-06T21:12:07.383Z,79.35
2016-06-06T21:13:07.354Z,79.93
2016-06-06T21:14:07.357Z,80.22
2016-06-06T21:15:07.345Z,80.42
2016-06-06T21:16:07.331Z,80.32
2016-06-06T21:17:07.334Z,80.52
2016-06-06T21:18:07.321Z,80.32
2016-06-06T21:19:07.309Z,80.13
2016-06-06T21:20:07.310Z,80.32
2016-06-06T21:21:07.704Z,80.03
2016-06-06T21:22:07.285Z,81.1
2016-06-06T21:23:07.272Z,80.9
2016-06-06T21:24:07.274Z,80.9
2016-06-06T21:25:07.277Z,80.62
2016-06-06T21:26:07.264Z,80.9
2016-06-06T21:27:07.252Z,81
2016-06-06T21:28:07.254Z,80.9
2016-06-06T21:29:07.226Z,80.62
2016-06-06T21:30:07.213Z,81
2016-06-06T21:31:07.215Z,81.15
2016-06-06T21:32:07.218Z,81.48
2016-06-06T21:33:07.204Z,81.54
2016-06-06T21:34:07.207Z,81.54
2016-06-06T21:35:07.523Z,82.03
2016-06-06T21:36:07.495Z,81.93